sensor_id;sensor_type;location;lat;lon;timestamp;temperature;humidity
18384;DHT22;9318;48.644;9.456;2023-05-02T00:01:14;9.10;99.90
18384;DHT22;9318;48.644;9.456;2023-05-02T00:03:41;9.10;99.90
18384;DHT22;9318;48.644;9.456;2023-05-02T00:06:08;9.10;99.90
18384;DHT22;9318;48.644;9.456;2023-05-02T00:08:37;9.00;99.90
18384;DHT22;9318;48.644;9.456;2023-05-02T00:11:04;9.00;99.90
18384;DHT22;9318;48.644;9.456;2023-05-02T00:13:31;9.00;99.90
18384;DHT22;9318;48.644;9.456;2023-05-02T00:15:57;9.00;99.90
18384;DHT22;9318;48.644;9.456;2023-05-02T00:18:24;9.00;99.90
18384;DHT22;9318;48.644;9.456;2023-05-02T00:20:51;8.90;99.90
18384;DHT22;9318;48.644;9.456;2023-05-02T00:23:18;8.90;99.90
18384;DHT22;9318;48.644;9.456;2023-05-02T00:25:46;8.80;99.90
18384;DHT22;9318;48.644;9.456;2023-05-02T00:28:13;8.80;99.90
18384;DHT22;9318;48.644;9.456;2023-05-02T00:30:42;8.80;99.90
18384;DHT22;9318;48.644;9.456;2023-05-02T00:33:09;8.80;99.90
18384;DHT22;9318;48.644;9.456;2023-05-02T00:35:37;8.80;99.90
18384;DHT22;9318;48.644;9.456;2023-05-02T00:38:03;8.80;99.90
18384;DHT22;9318;48.644;9.456;2023-05-02T00:40:30;8.80;99.90
18384;DHT22;9318;48.644;9.456;2023-05-02T00:42:58;8.80;99.90
18384;DHT22;9318;48.644;9.456;2023-05-02T00:45:25;8.80;99.90
18384;DHT22;9318;48.644;9.456;2023-05-02T00:47:52;8.70;99.90
18384;DHT22;9318;48.644;9.456;2023-05-02T00:50:19;8.70;99.90
18384;DHT22;9318;48.644;9.456;2023-05-02T00:52:46;8.70;99.90
18384;DHT22;9318;48.644;9.456;2023-05-02T00:55:13;8.70;99.90
18384;DHT22;9318;48.644;9.456;2023-05-02T00:57:40;8.70;99.90
18384;DHT22;9318;48.644;9.456;2023-05-02T01:00:10;8.60;99.90
18384;DHT22;9318;48.644;9.456;2023-05-02T01:02:45;8.60;99.90
18384;DHT22;9318;48.644;9.456;2023-05-02T01:05:16;8.60;99.90
18384;DHT22;9318;48.644;9.456;2023-05-02T01:08:02;8.60;99.90
18384;DHT22;9318;48.644;9.456;2023-05-02T01:10:45;8.50;99.90
18384;DHT22;9318;48.644;9.456;2023-05-02T01:13:19;8.50;99.90
18384;DHT22;9318;48.644;9.456;2023-05-02T01:15:50;8.50;99.90
18384;DHT22;9318;48.644;9.456;2023-05-02T01:18:19;8.50;99.90
18384;DHT22;9318;48.644;9.456;2023-05-02T01:20:51;8.50;99.90
18384;DHT22;9318;48.644;9.456;2023-05-02T01:23:29;8.50;99.90
18384;DHT22;9318;48.644;9.456;2023-05-02T01:26:05;8.40;99.90
18384;DHT22;9318;48.644;9.456;2023-05-02T01:28:56;8.40;99.90
18384;DHT22;9318;48.644;9.456;2023-05-02T01:31:24;8.30;99.90
18384;DHT22;9318;48.644;9.456;2023-05-02T01:33:53;8.30;99.90
18384;DHT22;9318;48.644;9.456;2023-05-02T01:36:22;8.30;99.90
18384;DHT22;9318;48.644;9.456;2023-05-02T01:38:49;8.30;99.90
18384;DHT22;9318;48.644;9.456;2023-05-02T01:41:17;8.30;99.90
18384;DHT22;9318;48.644;9.456;2023-05-02T01:43:46;8.30;99.90
18384;DHT22;9318;48.644;9.456;2023-05-02T01:46:14;8.20;99.90
18384;DHT22;9318;48.644;9.456;2023-05-02T01:48:43;8.20;99.90
18384;DHT22;9318;48.644;9.456;2023-05-02T01:51:13;8.10;99.90
18384;DHT22;9318;48.644;9.456;2023-05-02T01:53:41;8.10;99.90
18384;DHT22;9318;48.644;9.456;2023-05-02T01:56:09;8.10;99.90
18384;DHT22;9318;48.644;9.456;2023-05-02T01:58:37;8.10;99.90
18384;DHT22;9318;48.644;9.456;2023-05-02T02:01:08;8.10;99.90
18384;DHT22;9318;48.644;9.456;2023-05-02T02:03:35;8.00;99.90
18384;DHT22;9318;48.644;9.456;2023-05-02T02:06:02;8.00;99.90
18384;DHT22;9318;48.644;9.456;2023-05-02T02:08:29;7.90;99.90
18384;DHT22;9318;48.644;9.456;2023-05-02T02:10:58;8.00;99.90
18384;DHT22;9318;48.644;9.456;2023-05-02T02:13:29;7.90;99.90
18384;DHT22;9318;48.644;9.456;2023-05-02T02:15:58;8.00;99.90
18384;DHT22;9318;48.644;9.456;2023-05-02T02:18:29;7.90;99.90
18384;DHT22;9318;48.644;9.456;2023-05-02T02:20:58;7.90;99.90
18384;DHT22;9318;48.644;9.456;2023-05-02T02:23:27;7.90;99.90
18384;DHT22;9318;48.644;9.456;2023-05-02T02:25:55;7.90;99.90
18384;DHT22;9318;48.644;9.456;2023-05-02T02:28:22;7.80;99.90
18384;DHT22;9318;48.644;9.456;2023-05-02T02:30:49;7.80;99.90
18384;DHT22;9318;48.644;9.456;2023-05-02T02:33:16;7.80;99.90
18384;DHT22;9318;48.644;9.456;2023-05-02T02:35:50;7.80;99.90
18384;DHT22;9318;48.644;9.456;2023-05-02T02:38:25;7.80;99.90
18384;DHT22;9318;48.644;9.456;2023-05-02T02:41:00;7.80;99.90
18384;DHT22;9318;48.644;9.456;2023-05-02T02:43:35;7.80;99.90
18384;DHT22;9318;48.644;9.456;2023-05-02T02:46:15;7.80;99.90
18384;DHT22;9318;48.644;9.456;2023-05-02T02:48:48;7.70;99.90
18384;DHT22;9318;48.644;9.456;2023-05-02T02:51:24;7.70;99.90
18384;DHT22;9318;48.644;9.456;2023-05-02T02:53:59;7.70;99.90
18384;DHT22;9318;48.644;9.456;2023-05-02T02:56:28;7.70;99.90
18384;DHT22;9318;48.644;9.456;2023-05-02T02:59:03;7.60;99.90
18384;DHT22;9318;48.644;9.456;2023-05-02T03:01:31;7.60;99.90
18384;DHT22;9318;48.644;9.456;2023-05-02T03:04:00;7.60;99.90
18384;DHT22;9318;48.644;9.456;2023-05-02T03:06:30;7.60;99.90
18384;DHT22;9318;48.644;9.456;2023-05-02T03:08:57;7.60;99.90
18384;DHT22;9318;48.644;9.456;2023-05-02T03:11:24;7.60;99.90
18384;DHT22;9318;48.644;9.456;2023-05-02T03:13:51;7.50;99.90
18384;DHT22;9318;48.644;9.456;2023-05-02T03:16:33;7.50;99.90
18384;DHT22;9318;48.644;9.456;2023-05-02T03:19:00;7.50;99.90
18384;DHT22;9318;48.644;9.456;2023-05-02T03:21:27;7.50;99.90
18384;DHT22;9318;48.644;9.456;2023-05-02T03:23:57;7.40;99.90
18384;DHT22;9318;48.644;9.456;2023-05-02T03:26:24;7.40;99.90
18384;DHT22;9318;48.644;9.456;2023-05-02T03:28:51;7.40;99.90
18384;DHT22;9318;48.644;9.456;2023-05-02T03:31:18;7.40;99.90
18384;DHT22;9318;48.644;9.456;2023-05-02T03:33:44;7.40;99.90
18384;DHT22;9318;48.644;9.456;2023-05-02T03:36:11;7.40;99.90
18384;DHT22;9318;48.644;9.456;2023-05-02T03:38:38;7.40;99.90
18384;DHT22;9318;48.644;9.456;2023-05-02T03:41:06;7.40;99.90
18384;DHT22;9318;48.644;9.456;2023-05-02T03:43:33;7.40;99.90
18384;DHT22;9318;48.644;9.456;2023-05-02T03:46:04;7.40;99.90
18384;DHT22;9318;48.644;9.456;2023-05-02T03:48:32;7.40;99.90
18384;DHT22;9318;48.644;9.456;2023-05-02T03:51:00;7.40;99.90
18384;DHT22;9318;48.644;9.456;2023-05-02T03:53:27;7.40;99.90
18384;DHT22;9318;48.644;9.456;2023-05-02T03:55:54;7.40;99.90
18384;DHT22;9318;48.644;9.456;2023-05-02T03:58:23;7.40;99.90
18384;DHT22;9318;48.644;9.456;2023-05-02T04:00:51;7.30;99.90
18384;DHT22;9318;48.644;9.456;2023-05-02T04:03:18;7.30;99.90
18384;DHT22;9318;48.644;9.456;2023-05-02T04:05:45;7.30;99.90
18384;DHT22;9318;48.644;9.456;2023-05-02T04:08:11;7.30;99.90
18384;DHT22;9318;48.644;9.456;2023-05-02T04:10:39;7.30;99.90
18384;DHT22;9318;48.644;9.456;2023-05-02T04:13:05;7.20;99.90
18384;DHT22;9318;48.644;9.456;2023-05-02T04:15:33;7.30;99.90
18384;DHT22;9318;48.644;9.456;2023-05-02T04:18:00;7.40;99.90
18384;DHT22;9318;48.644;9.456;2023-05-02T04:20:28;7.40;99.90
18384;DHT22;9318;48.644;9.456;2023-05-02T04:22:55;7.40;99.90
18384;DHT22;9318;48.644;9.456;2023-05-02T04:25:21;7.40;99.90
18384;DHT22;9318;48.644;9.456;2023-05-02T04:27:48;7.40;99.90
18384;DHT22;9318;48.644;9.456;2023-05-02T04:30:15;7.50;99.90
18384;DHT22;9318;48.644;9.456;2023-05-02T04:32:43;7.50;99.90
18384;DHT22;9318;48.644;9.456;2023-05-02T04:35:10;7.40;99.90
18384;DHT22;9318;48.644;9.456;2023-05-02T04:37:37;7.40;99.90
18384;DHT22;9318;48.644;9.456;2023-05-02T04:40:04;7.50;99.90
18384;DHT22;9318;48.644;9.456;2023-05-02T04:42:32;7.50;99.90
18384;DHT22;9318;48.644;9.456;2023-05-02T04:44:59;7.50;99.90
18384;DHT22;9318;48.644;9.456;2023-05-02T04:47:26;7.50;99.90
18384;DHT22;9318;48.644;9.456;2023-05-02T04:49:54;7.50;99.90
18384;DHT22;9318;48.644;9.456;2023-05-02T04:52:21;7.60;99.90
18384;DHT22;9318;48.644;9.456;2023-05-02T04:54:47;7.60;99.90
18384;DHT22;9318;48.644;9.456;2023-05-02T04:57:14;7.60;99.90
18384;DHT22;9318;48.644;9.456;2023-05-02T04:59:41;7.70;99.90
18384;DHT22;9318;48.644;9.456;2023-05-02T05:02:08;7.70;99.90
18384;DHT22;9318;48.644;9.456;2023-05-02T05:04:36;7.70;99.90
18384;DHT22;9318;48.644;9.456;2023-05-02T05:07:05;7.70;99.90
18384;DHT22;9318;48.644;9.456;2023-05-02T05:09:31;7.80;99.90
18384;DHT22;9318;48.644;9.456;2023-05-02T05:11:58;7.80;99.90
18384;DHT22;9318;48.644;9.456;2023-05-02T05:14:25;7.90;99.90
18384;DHT22;9318;48.644;9.456;2023-05-02T05:16:52;8.00;99.90
18384;DHT22;9318;48.644;9.456;2023-05-02T05:19:19;8.00;99.90
18384;DHT22;9318;48.644;9.456;2023-05-02T05:21:46;8.10;99.90
18384;DHT22;9318;48.644;9.456;2023-05-02T05:24:14;8.20;99.90
18384;DHT22;9318;48.644;9.456;2023-05-02T05:26:40;8.30;99.90
18384;DHT22;9318;48.644;9.456;2023-05-02T05:29:07;8.40;99.90
18384;DHT22;9318;48.644;9.456;2023-05-02T05:31:34;8.50;99.90
18384;DHT22;9318;48.644;9.456;2023-05-02T05:34:00;8.60;99.90
18384;DHT22;9318;48.644;9.456;2023-05-02T05:36:29;8.60;99.90
18384;DHT22;9318;48.644;9.456;2023-05-02T05:38:55;8.80;99.90
18384;DHT22;9318;48.644;9.456;2023-05-02T05:41:23;8.90;99.90
18384;DHT22;9318;48.644;9.456;2023-05-02T05:43:50;9.00;99.90
18384;DHT22;9318;48.644;9.456;2023-05-02T05:46:17;9.10;99.90
18384;DHT22;9318;48.644;9.456;2023-05-02T05:48:44;9.10;99.90
18384;DHT22;9318;48.644;9.456;2023-05-02T05:51:10;9.20;99.90
18384;DHT22;9318;48.644;9.456;2023-05-02T05:53:37;9.30;99.90
18384;DHT22;9318;48.644;9.456;2023-05-02T05:56:10;9.30;99.90
18384;DHT22;9318;48.644;9.456;2023-05-02T05:58:39;9.40;99.90
18384;DHT22;9318;48.644;9.456;2023-05-02T06:01:07;9.50;99.90
18384;DHT22;9318;48.644;9.456;2023-05-02T06:03:34;9.60;99.90
18384;DHT22;9318;48.644;9.456;2023-05-02T06:06:00;9.80;99.90
18384;DHT22;9318;48.644;9.456;2023-05-02T06:08:27;9.90;99.90
18384;DHT22;9318;48.644;9.456;2023-05-02T06:10:54;10.00;99.90
18384;DHT22;9318;48.644;9.456;2023-05-02T06:13:21;10.10;99.90
18384;DHT22;9318;48.644;9.456;2023-05-02T06:15:49;10.20;99.90
18384;DHT22;9318;48.644;9.456;2023-05-02T06:18:15;10.30;99.90
18384;DHT22;9318;48.644;9.456;2023-05-02T06:20:42;10.50;99.90
18384;DHT22;9318;48.644;9.456;2023-05-02T06:23:09;10.60;99.90
18384;DHT22;9318;48.644;9.456;2023-05-02T06:25:38;10.70;99.90
18384;DHT22;9318;48.644;9.456;2023-05-02T06:28:05;10.80;99.90
18384;DHT22;9318;48.644;9.456;2023-05-02T06:30:34;10.80;99.90
18384;DHT22;9318;48.644;9.456;2023-05-02T06:33:04;10.90;99.90
18384;DHT22;9318;48.644;9.456;2023-05-02T06:35:31;10.90;99.90
18384;DHT22;9318;48.644;9.456;2023-05-02T06:37:58;10.90;99.90
18384;DHT22;9318;48.644;9.456;2023-05-02T06:40:24;10.90;99.90
18384;DHT22;9318;48.644;9.456;2023-05-02T06:42:51;10.90;99.90
18384;DHT22;9318;48.644;9.456;2023-05-02T06:45:18;10.90;99.90
18384;DHT22;9318;48.644;9.456;2023-05-02T06:47:45;10.80;99.90
18384;DHT22;9318;48.644;9.456;2023-05-02T06:50:13;10.80;99.90
18384;DHT22;9318;48.644;9.456;2023-05-02T06:52:39;10.80;99.90
18384;DHT22;9318;48.644;9.456;2023-05-02T06:55:07;10.80;99.90
18384;DHT22;9318;48.644;9.456;2023-05-02T06:57:34;11.00;99.90
18384;DHT22;9318;48.644;9.456;2023-05-02T07:00:00;11.20;99.90
18384;DHT22;9318;48.644;9.456;2023-05-02T07:02:27;11.60;99.90
18384;DHT22;9318;48.644;9.456;2023-05-02T07:04:54;11.90;99.90
18384;DHT22;9318;48.644;9.456;2023-05-02T07:07:22;12.10;99.90
18384;DHT22;9318;48.644;9.456;2023-05-02T07:09:49;12.30;99.90
18384;DHT22;9318;48.644;9.456;2023-05-02T07:12:15;12.30;99.90
18384;DHT22;9318;48.644;9.456;2023-05-02T07:14:42;12.30;99.90
18384;DHT22;9318;48.644;9.456;2023-05-02T07:17:11;12.40;99.90
18384;DHT22;9318;48.644;9.456;2023-05-02T07:19:38;12.40;99.90
18384;DHT22;9318;48.644;9.456;2023-05-02T07:22:04;12.40;99.90
18384;DHT22;9318;48.644;9.456;2023-05-02T07:24:33;12.40;99.90
18384;DHT22;9318;48.644;9.456;2023-05-02T07:27:00;12.40;99.90
18384;DHT22;9318;48.644;9.456;2023-05-02T07:29:27;12.30;99.90
18384;DHT22;9318;48.644;9.456;2023-05-02T07:31:54;12.30;99.90
18384;DHT22;9318;48.644;9.456;2023-05-02T07:34:21;12.30;99.90
18384;DHT22;9318;48.644;9.456;2023-05-02T07:36:47;12.20;99.90
18384;DHT22;9318;48.644;9.456;2023-05-02T07:39:14;12.30;99.90
18384;DHT22;9318;48.644;9.456;2023-05-02T07:41:42;12.30;99.90
18384;DHT22;9318;48.644;9.456;2023-05-02T07:44:10;12.30;99.90
18384;DHT22;9318;48.644;9.456;2023-05-02T07:46:36;12.40;99.90
18384;DHT22;9318;48.644;9.456;2023-05-02T07:49:03;12.50;99.90
18384;DHT22;9318;48.644;9.456;2023-05-02T07:51:30;12.60;99.90
18384;DHT22;9318;48.644;9.456;2023-05-02T07:53:57;12.60;99.90
18384;DHT22;9318;48.644;9.456;2023-05-02T07:56:24;12.70;99.90
18384;DHT22;9318;48.644;9.456;2023-05-02T07:58:52;12.80;99.90
18384;DHT22;9318;48.644;9.456;2023-05-02T08:01:19;12.90;99.90
18384;DHT22;9318;48.644;9.456;2023-05-02T08:03:45;13.00;99.90
18384;DHT22;9318;48.644;9.456;2023-05-02T08:06:13;13.20;99.90
18384;DHT22;9318;48.644;9.456;2023-05-02T08:08:39;13.30;99.90
18384;DHT22;9318;48.644;9.456;2023-05-02T08:11:06;13.50;99.90
18384;DHT22;9318;48.644;9.456;2023-05-02T08:13:33;13.70;99.90
18384;DHT22;9318;48.644;9.456;2023-05-02T08:16:01;13.80;99.90
18384;DHT22;9318;48.644;9.456;2023-05-02T08:18:28;13.80;99.90
18384;DHT22;9318;48.644;9.456;2023-05-02T08:20:55;13.80;99.90
18384;DHT22;9318;48.644;9.456;2023-05-02T08:23:22;13.80;99.90
18384;DHT22;9318;48.644;9.456;2023-05-02T08:25:49;13.80;99.90
18384;DHT22;9318;48.644;9.456;2023-05-02T08:28:16;13.70;99.90
18384;DHT22;9318;48.644;9.456;2023-05-02T08:30:43;13.70;99.90
18384;DHT22;9318;48.644;9.456;2023-05-02T08:33:12;13.70;99.90
18384;DHT22;9318;48.644;9.456;2023-05-02T08:35:38;13.70;99.90
18384;DHT22;9318;48.644;9.456;2023-05-02T08:38:05;13.60;99.90
18384;DHT22;9318;48.644;9.456;2023-05-02T08:40:34;13.60;99.90
18384;DHT22;9318;48.644;9.456;2023-05-02T08:43:02;13.60;99.90
18384;DHT22;9318;48.644;9.456;2023-05-02T08:45:30;13.50;99.90
18384;DHT22;9318;48.644;9.456;2023-05-02T08:48:04;13.50;99.90
18384;DHT22;9318;48.644;9.456;2023-05-02T08:50:35;13.50;99.90
18384;DHT22;9318;48.644;9.456;2023-05-02T08:53:03;13.60;99.90
18384;DHT22;9318;48.644;9.456;2023-05-02T08:55:31;13.70;99.90
18384;DHT22;9318;48.644;9.456;2023-05-02T08:57:57;13.80;99.90
18384;DHT22;9318;48.644;9.456;2023-05-02T09:00:26;13.90;99.90
18384;DHT22;9318;48.644;9.456;2023-05-02T09:03:03;14.00;99.90
18384;DHT22;9318;48.644;9.456;2023-05-02T09:05:39;14.10;99.90
18384;DHT22;9318;48.644;9.456;2023-05-02T09:08:06;14.10;99.90
18384;DHT22;9318;48.644;9.456;2023-05-02T09:10:34;14.20;99.90
18384;DHT22;9318;48.644;9.456;2023-05-02T09:13:29;14.20;99.90
18384;DHT22;9318;48.644;9.456;2023-05-02T09:15:57;14.30;99.90
18384;DHT22;9318;48.644;9.456;2023-05-02T09:18:28;14.50;99.90
18384;DHT22;9318;48.644;9.456;2023-05-02T09:20:57;14.90;99.90
18384;DHT22;9318;48.644;9.456;2023-05-02T09:23:34;15.40;99.90
18384;DHT22;9318;48.644;9.456;2023-05-02T09:26:08;15.70;99.90
18384;DHT22;9318;48.644;9.456;2023-05-02T09:28:40;16.00;99.90
18384;DHT22;9318;48.644;9.456;2023-05-02T09:31:08;16.40;99.90
18384;DHT22;9318;48.644;9.456;2023-05-02T09:33:36;16.40;99.90
18384;DHT22;9318;48.644;9.456;2023-05-02T09:36:05;16.20;99.90
18384;DHT22;9318;48.644;9.456;2023-05-02T09:38:32;16.10;99.90
18384;DHT22;9318;48.644;9.456;2023-05-02T09:40:59;16.20;99.90
18384;DHT22;9318;48.644;9.456;2023-05-02T09:43:28;16.70;99.90
18384;DHT22;9318;48.644;9.456;2023-05-02T09:45:59;17.00;99.90
18384;DHT22;9318;48.644;9.456;2023-05-02T09:48:27;17.10;99.90
18384;DHT22;9318;48.644;9.456;2023-05-02T09:50:54;17.70;99.90
18384;DHT22;9318;48.644;9.456;2023-05-02T09:53:24;18.50;99.90
18384;DHT22;9318;48.644;9.456;2023-05-02T09:55:59;19.40;99.90
18384;DHT22;9318;48.644;9.456;2023-05-02T09:58:26;19.70;99.90
18384;DHT22;9318;48.644;9.456;2023-05-02T10:00:55;19.80;99.90
18384;DHT22;9318;48.644;9.456;2023-05-02T10:03:24;20.10;99.90
18384;DHT22;9318;48.644;9.456;2023-05-02T10:05:51;20.10;99.90
18384;DHT22;9318;48.644;9.456;2023-05-02T10:08:19;19.80;99.90
18384;DHT22;9318;48.644;9.456;2023-05-02T10:10:50;19.80;99.90
18384;DHT22;9318;48.644;9.456;2023-05-02T10:13:19;19.70;99.90
18384;DHT22;9318;48.644;9.456;2023-05-02T10:15:49;19.70;99.90
18384;DHT22;9318;48.644;9.456;2023-05-02T10:18:20;19.80;99.90
18384;DHT22;9318;48.644;9.456;2023-05-02T10:20:55;19.80;99.90
18384;DHT22;9318;48.644;9.456;2023-05-02T10:23:24;19.80;99.90
18384;DHT22;9318;48.644;9.456;2023-05-02T10:25:53;19.70;99.90
18384;DHT22;9318;48.644;9.456;2023-05-02T10:28:20;19.50;99.90
18384;DHT22;9318;48.644;9.456;2023-05-02T10:30:49;19.20;99.90
18384;DHT22;9318;48.644;9.456;2023-05-02T10:33:16;18.90;99.90
18384;DHT22;9318;48.644;9.456;2023-05-02T10:35:44;18.60;99.90
18384;DHT22;9318;48.644;9.456;2023-05-02T10:38:13;18.50;99.90
18384;DHT22;9318;48.644;9.456;2023-05-02T10:40:48;18.50;99.90
18384;DHT22;9318;48.644;9.456;2023-05-02T10:43:22;18.60;99.90
18384;DHT22;9318;48.644;9.456;2023-05-02T10:45:51;18.80;99.90
18384;DHT22;9318;48.644;9.456;2023-05-02T10:48:19;18.90;99.90
18384;DHT22;9318;48.644;9.456;2023-05-02T10:50:48;18.70;99.90
18384;DHT22;9318;48.644;9.456;2023-05-02T10:53:29;18.40;99.90
18384;DHT22;9318;48.644;9.456;2023-05-02T10:56:14;18.50;99.90
18384;DHT22;9318;48.644;9.456;2023-05-02T10:58:43;18.70;99.90
18384;DHT22;9318;48.644;9.456;2023-05-02T11:01:32;18.90;99.90
18384;DHT22;9318;48.644;9.456;2023-05-02T11:04:05;18.80;99.90
18384;DHT22;9318;48.644;9.456;2023-05-02T11:06:34;18.80;99.90
18384;DHT22;9318;48.644;9.456;2023-05-02T11:09:29;18.90;99.90
18384;DHT22;9318;48.644;9.456;2023-05-02T11:11:56;19.20;99.90
18384;DHT22;9318;48.644;9.456;2023-05-02T11:14:45;19.30;99.90
18384;DHT22;9318;48.644;9.456;2023-05-02T11:17:13;19.10;99.90
18384;DHT22;9318;48.644;9.456;2023-05-02T11:22:53;18.80;99.90
18384;DHT22;9318;48.644;9.456;2023-05-02T11:25:34;18.60;99.90
18384;DHT22;9318;48.644;9.456;2023-05-02T11:28:01;18.90;99.90
18384;DHT22;9318;48.644;9.456;2023-05-02T11:30:45;19.20;99.90
18384;DHT22;9318;48.644;9.456;2023-05-02T11:33:14;19.30;99.90
18384;DHT22;9318;48.644;9.456;2023-05-02T11:35:51;19.10;99.90
18384;DHT22;9318;48.644;9.456;2023-05-02T11:38:19;19.10;99.90
18384;DHT22;9318;48.644;9.456;2023-05-02T11:40:51;19.30;99.90
18384;DHT22;9318;48.644;9.456;2023-05-02T11:43:19;19.70;99.90
18384;DHT22;9318;48.644;9.456;2023-05-02T11:45:48;19.90;99.90
18384;DHT22;9318;48.644;9.456;2023-05-02T11:48:16;19.80;99.90
18384;DHT22;9318;48.644;9.456;2023-05-02T11:50:45;19.60;99.90
18384;DHT22;9318;48.644;9.456;2023-05-02T11:53:14;19.70;99.90
18384;DHT22;9318;48.644;9.456;2023-05-02T11:55:48;19.80;99.90
18384;DHT22;9318;48.644;9.456;2023-05-02T11:58:17;20.00;99.90
18384;DHT22;9318;48.644;9.456;2023-05-02T12:00:45;20.20;99.90
18384;DHT22;9318;48.644;9.456;2023-05-02T12:03:26;20.40;99.90
18384;DHT22;9318;48.644;9.456;2023-05-02T12:05:53;20.40;99.90
18384;DHT22;9318;48.644;9.456;2023-05-02T12:08:22;20.10;99.90
18384;DHT22;9318;48.644;9.456;2023-05-02T12:10:50;20.30;99.90
18384;DHT22;9318;48.644;9.456;2023-05-02T12:13:19;20.50;99.90
18384;DHT22;9318;48.644;9.456;2023-05-02T12:15:46;20.50;99.90
18384;DHT22;9318;48.644;9.456;2023-05-02T12:18:13;20.50;99.90
18384;DHT22;9318;48.644;9.456;2023-05-02T12:20:42;20.30;99.90
18384;DHT22;9318;48.644;9.456;2023-05-02T12:23:09;20.50;99.90
18384;DHT22;9318;48.644;9.456;2023-05-02T12:25:38;20.60;99.90
18384;DHT22;9318;48.644;9.456;2023-05-02T12:28:05;20.60;99.90
18384;DHT22;9318;48.644;9.456;2023-05-02T12:30:33;20.60;99.90
18384;DHT22;9318;48.644;9.456;2023-05-02T12:33:01;20.60;99.90
18384;DHT22;9318;48.644;9.456;2023-05-02T12:35:28;20.60;99.90
18384;DHT22;9318;48.644;9.456;2023-05-02T12:38:09;20.60;99.90
18384;DHT22;9318;48.644;9.456;2023-05-02T12:40:36;20.60;99.90
18384;DHT22;9318;48.644;9.456;2023-05-02T12:43:04;20.40;99.90
18384;DHT22;9318;48.644;9.456;2023-05-02T12:45:35;20.00;99.90
18384;DHT22;9318;48.644;9.456;2023-05-02T12:48:16;19.70;99.90
18384;DHT22;9318;48.644;9.456;2023-05-02T12:50:43;19.20;99.90
18384;DHT22;9318;48.644;9.456;2023-05-02T12:53:12;18.90;99.90
18384;DHT22;9318;48.644;9.456;2023-05-02T12:55:39;18.60;99.90
18384;DHT22;9318;48.644;9.456;2023-05-02T12:58:07;18.30;99.90
18384;DHT22;9318;48.644;9.456;2023-05-02T13:00:36;18.00;99.90
18384;DHT22;9318;48.644;9.456;2023-05-02T13:03:04;17.70;99.90
18384;DHT22;9318;48.644;9.456;2023-05-02T13:05:31;17.50;99.90
18384;DHT22;9318;48.644;9.456;2023-05-02T13:07:57;17.20;99.90
18384;DHT22;9318;48.644;9.456;2023-05-02T13:10:26;17.10;99.90
18384;DHT22;9318;48.644;9.456;2023-05-02T13:12:53;17.00;99.90
18384;DHT22;9318;48.644;9.456;2023-05-02T13:15:20;17.00;99.90
18384;DHT22;9318;48.644;9.456;2023-05-02T13:17:49;16.90;99.90
18384;DHT22;9318;48.644;9.456;2023-05-02T13:20:16;16.70;99.90
18384;DHT22;9318;48.644;9.456;2023-05-02T13:22:43;16.60;99.90
18384;DHT22;9318;48.644;9.456;2023-05-02T13:25:10;16.60;99.90
18384;DHT22;9318;48.644;9.456;2023-05-02T13:27:38;16.60;99.90
18384;DHT22;9318;48.644;9.456;2023-05-02T13:30:07;16.70;99.90
18384;DHT22;9318;48.644;9.456;2023-05-02T13:32:34;16.80;99.90
18384;DHT22;9318;48.644;9.456;2023-05-02T13:35:01;16.90;99.90
18384;DHT22;9318;48.644;9.456;2023-05-02T13:37:27;16.90;99.90
18384;DHT22;9318;48.644;9.456;2023-05-02T13:39:54;17.00;99.90
18384;DHT22;9318;48.644;9.456;2023-05-02T13:42:21;17.10;99.90
18384;DHT22;9318;48.644;9.456;2023-05-02T13:44:49;17.10;99.90
18384;DHT22;9318;48.644;9.456;2023-05-02T13:47:16;17.20;99.90
18384;DHT22;9318;48.644;9.456;2023-05-02T13:49:43;17.30;99.90
18384;DHT22;9318;48.644;9.456;2023-05-02T13:52:11;17.40;99.90
18384;DHT22;9318;48.644;9.456;2023-05-02T13:54:38;17.50;99.90
18384;DHT22;9318;48.644;9.456;2023-05-02T13:57:05;17.50;99.90
18384;DHT22;9318;48.644;9.456;2023-05-02T13:59:32;17.50;99.90
18384;DHT22;9318;48.644;9.456;2023-05-02T14:02:00;17.60;99.90
18384;DHT22;9318;48.644;9.456;2023-05-02T14:04:26;17.50;99.90
18384;DHT22;9318;48.644;9.456;2023-05-02T14:06:53;17.60;99.90
18384;DHT22;9318;48.644;9.456;2023-05-02T14:09:20;17.50;99.90
18384;DHT22;9318;48.644;9.456;2023-05-02T14:11:46;17.50;99.90
18384;DHT22;9318;48.644;9.456;2023-05-02T14:14:13;17.60;99.90
18384;DHT22;9318;48.644;9.456;2023-05-02T14:16:40;17.70;99.90
18384;DHT22;9318;48.644;9.456;2023-05-02T14:19:08;17.80;99.90
18384;DHT22;9318;48.644;9.456;2023-05-02T14:21:35;17.80;99.90
18384;DHT22;9318;48.644;9.456;2023-05-02T14:24:03;17.80;99.90
18384;DHT22;9318;48.644;9.456;2023-05-02T14:26:31;17.80;99.90
18384;DHT22;9318;48.644;9.456;2023-05-02T14:28:58;17.90;99.90
18384;DHT22;9318;48.644;9.456;2023-05-02T14:31:25;18.00;99.90
18384;DHT22;9318;48.644;9.456;2023-05-02T14:33:52;17.80;99.90
18384;DHT22;9318;48.644;9.456;2023-05-02T14:36:20;18.00;99.90
18384;DHT22;9318;48.644;9.456;2023-05-02T14:38:47;18.10;99.90
18384;DHT22;9318;48.644;9.456;2023-05-02T14:41:13;18.20;99.90
18384;DHT22;9318;48.644;9.456;2023-05-02T14:43:40;18.30;99.90
18384;DHT22;9318;48.644;9.456;2023-05-02T14:46:07;18.40;99.90
18384;DHT22;9318;48.644;9.456;2023-05-02T14:48:33;18.40;99.90
18384;DHT22;9318;48.644;9.456;2023-05-02T14:51:02;18.40;99.90
18384;DHT22;9318;48.644;9.456;2023-05-02T14:53:30;18.30;99.90
18384;DHT22;9318;48.644;9.456;2023-05-02T14:55:57;18.50;99.90
18384;DHT22;9318;48.644;9.456;2023-05-02T14:58:24;18.60;99.90
18384;DHT22;9318;48.644;9.456;2023-05-02T15:00:51;18.60;99.90
18384;DHT22;9318;48.644;9.456;2023-05-02T15:03:18;18.60;99.90
18384;DHT22;9318;48.644;9.456;2023-05-02T15:05:45;18.60;99.90
18384;DHT22;9318;48.644;9.456;2023-05-02T15:08:12;18.60;99.90
18384;DHT22;9318;48.644;9.456;2023-05-02T15:10:40;18.70;99.90
18384;DHT22;9318;48.644;9.456;2023-05-02T15:13:06;18.60;99.90
18384;DHT22;9318;48.644;9.456;2023-05-02T15:15:33;18.60;99.90
18384;DHT22;9318;48.644;9.456;2023-05-02T15:18:00;18.60;99.90
18384;DHT22;9318;48.644;9.456;2023-05-02T15:20:27;18.50;99.90
18384;DHT22;9318;48.644;9.456;2023-05-02T15:22:53;18.50;99.90
18384;DHT22;9318;48.644;9.456;2023-05-02T15:25:20;18.30;99.90
18384;DHT22;9318;48.644;9.456;2023-05-02T15:27:49;18.20;99.90
18384;DHT22;9318;48.644;9.456;2023-05-02T15:30:15;18.00;99.90
18384;DHT22;9318;48.644;9.456;2023-05-02T15:32:42;17.90;99.90
18384;DHT22;9318;48.644;9.456;2023-05-02T15:35:09;17.80;99.90
18384;DHT22;9318;48.644;9.456;2023-05-02T15:37:36;17.80;99.90
18384;DHT22;9318;48.644;9.456;2023-05-02T15:40:03;17.80;99.90
18384;DHT22;9318;48.644;9.456;2023-05-02T15:42:33;17.70;99.90
18384;DHT22;9318;48.644;9.456;2023-05-02T15:45:01;17.70;99.90
18384;DHT22;9318;48.644;9.456;2023-05-02T15:47:28;17.80;99.90
18384;DHT22;9318;48.644;9.456;2023-05-02T15:49:55;17.90;99.90
18384;DHT22;9318;48.644;9.456;2023-05-02T15:52:22;18.00;99.90
18384;DHT22;9318;48.644;9.456;2023-05-02T15:54:49;18.00;99.90
18384;DHT22;9318;48.644;9.456;2023-05-02T15:57:17;17.90;99.90
18384;DHT22;9318;48.644;9.456;2023-05-02T15:59:44;17.90;99.90
18384;DHT22;9318;48.644;9.456;2023-05-02T16:02:12;17.90;99.90
18384;DHT22;9318;48.644;9.456;2023-05-02T16:04:38;17.90;99.90